createdAt,value
2023-03-21T00:03:56.747Z,100061.94
2023-03-21T00:09:02.415Z,100075.97
2023-03-21T00:14:10.085Z,100083.22
2023-03-21T00:19:18.197Z,100096.06
2023-03-21T00:24:24.180Z,100086.97
2023-03-21T00:29:29.394Z,100085.00
2023-03-21T00:34:43.058Z,100089.78
2023-03-21T00:39:50.609Z,100075.88
2023-03-21T00:44:56.666Z,100072.25
2023-03-21T00:50:01.970Z,100081.47
2023-03-21T00:55:08.800Z,100079.94
2023-03-21T01:00:17.212Z,100086.69
2023-03-21T01:05:42.243Z,100085.16
2023-03-21T01:10:50.157Z,100083.16
2023-03-21T01:15:58.380Z,100075.47
2023-03-21T01:21:07.540Z,100089.81
2023-03-21T01:26:14.220Z,100128.59
2023-03-21T01:31:22.023Z,100087.50
2023-03-21T01:36:30.220Z,100093.94
2023-03-21T01:41:44.708Z,100090.03
2023-03-21T01:47:11.088Z,100090.72
2023-03-21T01:52:38.256Z,100090.06
2023-03-21T01:58:05.489Z,100101.22
2023-03-21T02:03:39.520Z,100105.25
2023-03-21T02:09:03.151Z,100099.91
2023-03-21T02:14:13.234Z,100092.44
2023-03-21T02:19:52.729Z,100094.28
2023-03-21T02:25:28.870Z,100094.94
2023-03-21T02:31:06.169Z,100080.59
2023-03-21T02:36:14.203Z,100076.34
2023-03-21T02:41:27.452Z,100080.16
2023-03-21T02:46:53.720Z,100105.16
2023-03-21T02:52:14.492Z,100063.94
2023-03-21T02:57:29.073Z,100051.75
2023-03-21T03:02:42.177Z,100055.69
2023-03-21T03:08:09.335Z,100049.63
2023-03-21T03:13:46.034Z,100035.97
2023-03-21T03:19:13.273Z,100028.66
2023-03-21T03:24:42.473Z,100027.84
2023-03-21T03:29:49.421Z,100029.53
2023-03-21T03:35:02.716Z,100020.09
2023-03-21T03:40:13.696Z,100027.47
2023-03-21T03:45:32.030Z,100012.31
2023-03-21T03:50:45.087Z,100000.59
2023-03-21T03:55:57.269Z,100019.59
2023-03-21T04:01:03.238Z,100008.06
2023-03-21T04:06:10.112Z,99998.81
2023-03-21T04:11:18.751Z,100003.84
2023-03-21T04:16:29.682Z,100018.53
2023-03-21T04:21:35.911Z,99991.53
2023-03-21T04:26:44.078Z,100001.72
2023-03-21T04:32:17.627Z,99993.31
2023-03-21T04:37:35.200Z,99996.59
2023-03-21T04:42:41.306Z,99984.16
2023-03-21T04:47:46.989Z,99998.53
2023-03-21T04:52:52.337Z,99972.78
2023-03-21T04:57:57.739Z,99959.13
2023-03-21T05:03:03.798Z,99947.06
2023-03-21T05:08:09.299Z,99948.13
2023-03-21T05:13:15.914Z,99945.50
2023-03-21T05:18:26.096Z,99932.03
2023-03-21T05:23:44.439Z,99910.28
2023-03-21T05:28:52.657Z,99933.44
2023-03-21T05:33:59.312Z,99920.28
2023-03-21T05:39:05.668Z,99903.03
2023-03-21T05:44:14.927Z,99903.25
2023-03-21T05:49:23.995Z,99873.53
2023-03-21T05:54:33.710Z,99881.50
2023-03-21T05:59:40.359Z,99865.28
2023-03-21T06:04:46.049Z,99874.88
2023-03-21T06:09:51.856Z,99847.38
2023-03-21T06:14:57.573Z,99833.97
2023-03-21T06:20:12.883Z,99848.91
2023-03-21T06:25:26.196Z,99818.31
2023-03-21T06:30:31.939Z,99817.47
2023-03-21T06:35:56.764Z,99823.44
2023-03-21T06:41:06.202Z,99793.44
2023-03-21T06:46:18.239Z,99766.56
2023-03-21T06:51:24.265Z,99763.34
2023-03-21T06:56:49.694Z,99759.13
2023-03-21T07:02:01.323Z,99753.41
2023-03-21T07:07:08.582Z,99758.97
2023-03-21T07:12:14.106Z,99750.81
2023-03-21T07:17:57.395Z,99751.88
2023-03-21T07:23:03.172Z,99744.59
2023-03-21T07:28:11.127Z,99745.66
2023-03-21T07:33:15.721Z,99735.44
2023-03-21T07:38:22.883Z,99716.00
2023-03-21T07:43:28.572Z,99705.53
2023-03-21T07:48:36.127Z,99703.28
2023-03-21T07:53:43.270Z,99723.19
2023-03-21T07:58:49.431Z,99729.97
2023-03-21T08:03:55.097Z,99747.59
2023-03-21T08:09:01.196Z,99748.25
2023-03-21T08:14:06.766Z,99740.50
2023-03-21T08:19:13.021Z,99729.25
2023-03-21T08:24:19.294Z,99730.50
2023-03-21T08:29:26.434Z,99756.28
2023-03-21T08:34:31.799Z,99702.59
2023-03-21T08:39:37.371Z,99689.53
2023-03-21T08:44:43.720Z,99685.41
2023-03-21T08:49:48.906Z,99691.00
2023-03-21T08:54:54.691Z,99698.16
2023-03-21T09:00:00.925Z,99677.91
2023-03-21T09:05:07.486Z,99692.03
2023-03-21T09:10:22.303Z,99697.75
2023-03-21T09:15:32.070Z,99685.66
2023-03-21T09:20:39.577Z,99694.28
2023-03-21T09:25:48.773Z,99681.38
2023-03-21T09:30:54.032Z,99694.09
2023-03-21T09:36:01.713Z,99712.28
2023-03-21T09:41:21.081Z,99719.47
2023-03-21T09:46:53.586Z,99731.31
2023-03-21T09:52:02.067Z,99733.16
2023-03-21T09:57:27.865Z,99735.22
2023-03-21T10:02:42.014Z,99749.31
2023-03-21T10:07:59.342Z,99739.28
2023-03-21T10:13:07.722Z,99757.88
2023-03-21T10:18:25.576Z,99763.19
2023-03-21T10:23:32.202Z,99759.72
2023-03-21T10:28:53.096Z,99762.97
2023-03-21T10:34:05.991Z,99765.84
2023-03-21T10:39:38.456Z,99788.13
2023-03-21T10:44:51.439Z,99772.16
2023-03-21T10:50:08.230Z,99774.41
2023-03-21T10:55:27.078Z,99784.44
2023-03-21T11:00:38.959Z,99800.56
2023-03-21T11:05:45.246Z,99815.09
2023-03-21T11:11:08.764Z,99817.13
2023-03-21T11:16:24.763Z,99839.97
2023-03-21T11:21:37.070Z,99845.72
2023-03-21T11:26:45.744Z,99842.63
2023-03-21T11:31:51.467Z,99871.41
2023-03-21T11:37:02.608Z,99889.78
2023-03-21T11:42:27.533Z,99915.25
2023-03-21T11:47:33.067Z,99905.28
2023-03-21T11:52:45.808Z,99925.94
2023-03-21T11:58:14.539Z,99944.50
2023-03-21T12:03:54.697Z,99932.56
2023-03-21T12:09:19.053Z,99911.47
2023-03-21T12:14:50.522Z,99907.84
2023-03-21T12:20:14.945Z,99918.88
2023-03-21T12:25:29.193Z,99905.94
2023-03-21T12:30:53.940Z,99900.56
2023-03-21T12:36:14.291Z,99915.66
2023-03-21T12:41:30.557Z,99916.38
2023-03-21T12:46:48.239Z,99953.66
2023-03-21T12:52:00.872Z,99929.59
2023-03-21T12:57:35.706Z,99915.53
2023-03-21T13:02:51.436Z,99911.78
2023-03-21T13:08:06.970Z,99920.81
2023-03-21T13:13:42.902Z,99915.41
2023-03-21T13:18:58.048Z,99924.63
2023-03-21T13:24:07.347Z,99914.81
2023-03-21T13:29:36.386Z,99928.50
2023-03-21T13:34:41.994Z,99927.22
2023-03-21T13:39:50.419Z,99915.63
2023-03-21T13:45:02.312Z,99924.13
2023-03-21T13:50:29.841Z,99927.50
2023-03-21T13:55:44.127Z,99947.94
2023-03-21T14:01:25.777Z,99934.97
2023-03-21T14:07:03.589Z,99938.88
2023-03-21T14:12:22.028Z,99937.69
2023-03-21T14:17:33.282Z,99943.63
2023-03-21T14:22:39.598Z,99934.72
2023-03-21T14:27:52.477Z,99939.19
2023-03-21T14:33:09.294Z,99937.28
2023-03-21T14:38:42.541Z,99944.16
2023-03-21T14:43:59.577Z,99929.53
2023-03-21T14:49:16.748Z,99921.47
2023-03-21T14:54:23.083Z,99926.03
2023-03-21T14:59:33.262Z,99924.84
2023-03-21T15:04:38.835Z,99927.31
2023-03-21T15:09:59.099Z,99934.50
2023-03-21T15:15:05.436Z,99945.13
2023-03-21T15:20:16.528Z,99935.16
2023-03-21T15:25:28.821Z,99948.88
2023-03-21T15:30:38.039Z,99936.56
2023-03-21T15:35:49.531Z,99936.94
2023-03-21T15:41:24.597Z,99925.31
2023-03-21T15:46:45.489Z,99961.06
2023-03-21T15:51:57.410Z,99924.03
2023-03-21T15:57:10.620Z,99913.06
2023-03-21T16:02:23.383Z,99942.84
2023-03-21T16:07:29.668Z,99943.69
2023-03-21T16:12:35.466Z,99950.63
2023-03-21T16:17:42.472Z,99956.94
2023-03-21T16:22:48.824Z,99979.69
2023-03-21T16:27:54.996Z,99967.81
2023-03-21T16:33:00.670Z,99972.50
2023-03-21T16:38:06.584Z,99959.91
2023-03-21T16:43:13.210Z,99969.28
2023-03-21T16:48:19.942Z,99962.66
2023-03-21T16:53:25.473Z,99966.47
2023-03-21T16:58:32.498Z,99969.78
2023-03-21T17:03:39.107Z,99968.13
2023-03-21T17:08:45.494Z,99973.78
2023-03-21T17:13:54.057Z,99976.97
2023-03-21T17:18:59.271Z,99965.91
2023-03-21T17:24:04.423Z,99980.03
2023-03-21T17:29:09.803Z,99982.47
2023-03-21T17:34:15.579Z,99984.94
2023-03-21T17:39:24.395Z,100040.53
2023-03-21T17:44:29.924Z,100060.72
2023-03-21T17:49:35.465Z,100051.44
2023-03-21T17:54:40.872Z,100043.66
2023-03-21T17:59:46.020Z,100068.50
2023-03-21T18:04:51.468Z,100077.22
2023-03-21T18:09:58.736Z,100081.34
2023-03-21T18:15:10.679Z,100083.31
2023-03-21T18:20:23.743Z,100100.31
2023-03-21T18:25:29.341Z,100106.25
2023-03-21T18:30:56.459Z,100120.69
2023-03-21T18:36:00.550Z,100124.41
2023-03-21T18:41:06.886Z,100125.59
2023-03-21T18:46:14.631Z,100129.94
2023-03-21T18:51:20.703Z,100139.25
2023-03-21T19:01:52.084Z,100171.69
2023-03-21T19:06:59.666Z,100181.75
2023-03-21T19:12:05.494Z,100181.75
2023-03-21T19:22:37.538Z,100188.00
2023-03-21T19:27:42.656Z,100195.31
2023-03-21T19:32:48.464Z,100196.59
2023-03-21T19:37:54.564Z,100210.53
2023-03-21T19:43:14.381Z,100216.91
2023-03-21T19:48:27.099Z,100233.44
2023-03-21T19:53:32.461Z,100253.09
2023-03-21T19:58:37.707Z,100256.13
2023-03-21T20:03:43.518Z,100276.00
2023-03-21T20:14:16.868Z,100277.53
2023-03-21T20:19:24.025Z,100274.69
2023-03-21T20:24:29.714Z,100301.47
2023-03-21T20:30:08.079Z,100314.09
2023-03-21T20:35:13.767Z,100315.28
2023-03-21T20:40:24.482Z,100302.56
2023-03-21T20:45:32.184Z,100290.84
2023-03-21T20:50:39.716Z,100290.53
2023-03-21T20:55:47.487Z,100310.56
2023-03-21T21:00:53.308Z,100319.34
2023-03-21T21:05:59.254Z,100312.25
2023-03-21T21:11:53.475Z,100329.63
2023-03-21T21:16:30.558Z,100323.16
2023-03-21T21:21:36.148Z,100324.84
2023-03-21T21:26:47.223Z,100331.59
2023-03-21T21:31:52.500Z,100327.97
2023-03-21T21:36:58.390Z,100348.00
2023-03-21T21:42:03.881Z,100349.13
2023-03-21T21:47:11.136Z,100363.88
2023-03-21T21:52:23.352Z,100375.44
2023-03-21T21:57:28.673Z,100393.78
2023-03-21T22:02:34.080Z,100389.00
2023-03-21T22:07:40.308Z,100394.75
2023-03-21T22:12:45.427Z,100408.16
2023-03-21T22:17:50.807Z,100408.31
2023-03-21T22:22:57.986Z,100407.00
2023-03-21T22:28:03.341Z,100417.72
2023-03-21T22:33:10.107Z,100437.25
2023-03-21T22:38:15.550Z,100457.69
2023-03-21T22:43:20.731Z,100483.69
2023-03-21T22:48:26.045Z,100483.41
2023-03-21T22:53:31.870Z,100483.44
2023-03-21T22:58:37.213Z,100506.88
2023-03-21T23:03:43.364Z,100504.06
2023-03-21T23:08:48.533Z,100505.00
2023-03-21T23:14:07.138Z,100519.22
2023-03-21T23:19:13.107Z,100533.41
2023-03-21T23:24:18.389Z,100540.38
2023-03-21T23:29:23.869Z,100553.06
2023-03-21T23:34:29.536Z,100539.03
2023-03-21T23:39:35.161Z,100558.22
2023-03-21T23:44:40.575Z,100567.06
2023-03-21T23:49:52.077Z,100613.72
2023-03-21T23:54:57.196Z,100601.63
